• Join FlightAware (Why Join?)
  • Login
  • US Flag 
05:25PM EDT


 

Airport Tracker/Info


-or-


 

Live Flight TrackerFlight Track Log ✈ CTL312 ✈ 24-Jul-2013 ✈ KBKL - KPTK

Flight Track Log - Related Links

Times and Time Zones

All times are in EDT time to prevent confusion due to time zone crossing. See the CTL312 flight status page for this flight to view local times or setup timezone preferences in your user account.

Time Position Orientation Groundspeed Altitude Reporting Facility
EDT Latitude Longitude Course Direction KTS MPH feet Rate Location/Type
10:01PM 41.5317 -81.6706 349° North 122 140 1,200  Level Cleveland Center
10:01PM 41.5544 -81.6764 349° North 132 152 1,700 1,020 Climbing Cleveland Center
10:02PM 41.5939 -81.6964 339° North 139 160 3,000 1,020 Climbing Cleveland Center
10:03PM 41.6231 -81.7136 336° Northwest 135 155 3,800 840 Climbing Cleveland Center
10:04PM 41.6622 -81.7367 336° Northwest 143 165 4,700 720 Climbing Cleveland Center
10:05PM 41.6997 -81.7567 338° Northwest 151 174 5,300 540 Climbing Cleveland Center
10:06PM 41.7453 -81.7769 342° North 155 178 6,000 300 Climbing Cleveland Center
10:07PM 41.7889 -81.8031 336° Northwest 150 173 6,000  Level Cleveland Center
10:08PM 41.8322 -81.8261 338° Northwest 150 173 6,000  Level Cleveland Center
10:09PM 41.8758 -81.8492 339° North 160 184 6,000  Level Cleveland Center
10:10PM 41.9108 -81.8889 320° Northwest 160 184 6,000  Level Cleveland Center
10:11PM 41.9372 -81.9453 302° West 168 193 6,000  Level Cleveland Center
10:12PM 41.9636 -81.9961 305° West 173 199 6,000 -60 Level Cleveland Center
10:13PM 41.9903 -82.0497 304° West 168 193 5,900  Descending Cleveland Center
10:14PM 42.0103 -82.0978 299° West 168 193 6,000  Climbing Cleveland Center
10:15PM 42.0389 -82.1572 303° West 168 193 6,000  Level Cleveland Center
10:16PM 42.0633 -82.1997 308° West 171 197 6,000  Level Cleveland Center
10:17PM 42.0914 -82.2647 300° West 168 193 6,000  Level Cleveland Center
10:18PM 42.1156 -82.3186 301° West 168 193 6,000  Level Cleveland Center
10:19PM 42.1442 -82.3697 307° West 168 193 6,000  Level Cleveland Center
10:20PM 42.1703 -82.4211 304° West 168 193 6,000  Level Cleveland Center
10:21PM 42.1967 -82.4750 303° West 168 193 6,000  Level Cleveland Center
10:22PM 42.2250 -82.5264 307° West 168 193 6,000  Level Cleveland Center
10:23PM 42.2511 -82.5778 304° West 168 193 6,000  Level Cleveland Center
10:24PM 42.2794 -82.6319 305° West 168 193 6,000  Level Cleveland Center
10:25PM 42.3075 -82.6833 306° West 173 199 6,000  Level Cleveland Center
10:27PM 42.3419 -82.7461 307° West 171 197 6,000  Level Cleveland Center
10:28PM 42.3700 -82.7950 308° West 171 197 6,000 -60 Level Cleveland Center
10:29PM 42.3961 -82.8494 303° West 171 197 5,900  Descending Cleveland Center
10:30PM 42.4222 -82.9036 303° West 171 197 6,000  Climbing Cleveland Center
10:31PM 42.4481 -82.9581 303° West 169 194 6,000 -240 Level Cleveland Center
10:32PM 42.4700 -83.0153 297° West 173 199 5,600 -600 Descending Cleveland Center
10:33PM 42.5019 -83.0756 306° West 188 216 4,800 -720 Descending Cleveland Center
10:34PM 42.5317 -83.1417 301° West 183 211 4,100 -600 Descending Cleveland Center
10:35PM 42.5597 -83.2019 302° West 175 201 3,500 -600 Descending Cleveland Center
10:36PM 42.5792 -83.2536 297° West 176 203 3,000 -600 Descending Cleveland Center
10:37PM 42.6092 -83.3169 303° West 171 197 2,400 -480 Descending Cleveland Center
10:38PM 42.6367 -83.3858 299° West 166 191 1,900 -360 Descending Cleveland Center
10:39PM 42.6439 -83.4286 283° West 155 178 1,700 -300 Descending Cleveland Center
10:41PM 42.6500 -83.4167 270° West  Level FlightAware Approximate
10:48PM 42.6656 -83.4205 270° West  Level Estimated
10:49PM 42.6656 -83.4205 270° West  Level Estimated